sensor_id;sensor_type;location;lat;lon;timestamp;P1;durP1;ratioP1;P2;durP2;ratioP2
52274;SDS011;38228;50.940;4.024;2024-01-10T00:01:33;18.35;;;6.93;;
52274;SDS011;38228;50.940;4.024;2024-01-10T00:03:59;13.30;;;6.53;;
52274;SDS011;38228;50.940;4.024;2024-01-10T00:06:25;14.05;;;5.82;;
52274;SDS011;38228;50.940;4.024;2024-01-10T00:08:50;17.88;;;6.45;;
52274;SDS011;38228;50.940;4.024;2024-01-10T00:11:16;15.25;;;6.63;;
52274;SDS011;38228;50.940;4.024;2024-01-10T00:13:42;13.07;;;6.18;;
52274;SDS011;38228;50.940;4.024;2024-01-10T00:16:08;17.48;;;7.30;;
52274;SDS011;38228;50.940;4.024;2024-01-10T00:18:36;13.88;;;6.57;;
52274;SDS011;38228;50.940;4.024;2024-01-10T00:21:02;16.08;;;5.50;;
52274;SDS011;38228;50.940;4.024;2024-01-10T00:23:27;15.68;;;6.68;;
52274;SDS011;38228;50.940;4.024;2024-01-10T00:25:53;12.38;;;6.07;;
52274;SDS011;38228;50.940;4.024;2024-01-10T00:28:19;17.00;;;7.10;;
52274;SDS011;38228;50.940;4.024;2024-01-10T00:30:45;15.82;;;6.25;;
52274;SDS011;38228;50.940;4.024;2024-01-10T00:33:13;15.55;;;6.28;;
52274;SDS011;38228;50.940;4.024;2024-01-10T00:35:39;13.82;;;6.45;;
52274;SDS011;38228;50.940;4.024;2024-01-10T00:38:04;21.33;;;6.75;;
52274;SDS011;38228;50.940;4.024;2024-01-10T00:40:30;15.23;;;6.43;;
52274;SDS011;38228;50.940;4.024;2024-01-10T00:42:56;13.98;;;5.80;;
52274;SDS011;38228;50.940;4.024;2024-01-10T00:45:22;19.42;;;6.60;;
52274;SDS011;38228;50.940;4.024;2024-01-10T00:47:51;15.82;;;6.15;;
52274;SDS011;38228;50.940;4.024;2024-01-10T00:50:16;12.85;;;5.93;;
52274;SDS011;38228;50.940;4.024;2024-01-10T00:52:45;12.52;;;6.13;;
52274;SDS011;38228;50.940;4.024;2024-01-10T00:55:12;15.45;;;5.78;;
52274;SDS011;38228;50.940;4.024;2024-01-10T00:57:38;12.68;;;5.68;;
52274;SDS011;38228;50.940;4.024;2024-01-10T01:00:04;18.38;;;7.07;;
52274;SDS011;38228;50.940;4.024;2024-01-10T01:02:31;15.52;;;5.97;;
52274;SDS011;38228;50.940;4.024;2024-01-10T01:04:57;17.67;;;6.75;;
52274;SDS011;38228;50.940;4.024;2024-01-10T01:07:22;14.25;;;5.90;;
52274;SDS011;38228;50.940;4.024;2024-01-10T01:09:48;14.23;;;6.50;;
52274;SDS011;38228;50.940;4.024;2024-01-10T01:12:14;14.73;;;5.95;;
52274;SDS011;38228;50.940;4.024;2024-01-10T01:14:39;13.27;;;6.00;;
52274;SDS011;38228;50.940;4.024;2024-01-10T01:17:05;13.82;;;6.18;;
52274;SDS011;38228;50.940;4.024;2024-01-10T01:19:31;17.73;;;6.57;;
52274;SDS011;38228;50.940;4.024;2024-01-10T01:21:57;14.20;;;5.60;;
52274;SDS011;38228;50.940;4.024;2024-01-10T01:24:22;11.77;;;5.53;;
52274;SDS011;38228;50.940;4.024;2024-01-10T01:26:48;14.25;;;6.18;;
52274;SDS011;38228;50.940;4.024;2024-01-10T01:29:14;15.88;;;6.10;;
52274;SDS011;38228;50.940;4.024;2024-01-10T01:31:39;14.32;;;5.85;;
52274;SDS011;38228;50.940;4.024;2024-01-10T01:34:05;14.38;;;6.13;;
52274;SDS011;38228;50.940;4.024;2024-01-10T01:36:31;13.85;;;6.35;;
52274;SDS011;38228;50.940;4.024;2024-01-10T01:38:56;14.95;;;6.45;;
52274;SDS011;38228;50.940;4.024;2024-01-10T01:41:22;15.57;;;6.50;;
52274;SDS011;38228;50.940;4.024;2024-01-10T01:43:48;16.58;;;6.68;;
52274;SDS011;38228;50.940;4.024;2024-01-10T01:46:13;16.25;;;6.80;;
52274;SDS011;38228;50.940;4.024;2024-01-10T01:48:39;18.05;;;7.13;;
52274;SDS011;38228;50.940;4.024;2024-01-10T01:51:07;18.35;;;6.50;;
52274;SDS011;38228;50.940;4.024;2024-01-10T01:53:34;18.45;;;6.63;;
52274;SDS011;38228;50.940;4.024;2024-01-10T01:56:02;14.38;;;6.40;;
52274;SDS011;38228;50.940;4.024;2024-01-10T01:58:30;17.23;;;6.40;;
52274;SDS011;38228;50.940;4.024;2024-01-10T02:00:56;15.27;;;6.35;;
52274;SDS011;38228;50.940;4.024;2024-01-10T02:03:22;13.45;;;6.05;;
52274;SDS011;38228;50.940;4.024;2024-01-10T02:05:48;17.77;;;6.82;;
52274;SDS011;38228;50.940;4.024;2024-01-10T02:08:15;13.73;;;6.13;;
52274;SDS011;38228;50.940;4.024;2024-01-10T02:10:41;16.45;;;6.43;;
52274;SDS011;38228;50.940;4.024;2024-01-10T02:13:06;18.30;;;6.80;;
52274;SDS011;38228;50.940;4.024;2024-01-10T02:15:34;15.18;;;6.55;;
52274;SDS011;38228;50.940;4.024;2024-01-10T02:18:01;15.30;;;6.80;;
52274;SDS011;38228;50.940;4.024;2024-01-10T02:20:27;14.15;;;6.20;;
52274;SDS011;38228;50.940;4.024;2024-01-10T02:22:52;15.98;;;6.93;;
52274;SDS011;38228;50.940;4.024;2024-01-10T02:25:18;14.75;;;6.55;;
52274;SDS011;38228;50.940;4.024;2024-01-10T02:27:44;14.85;;;6.50;;
52274;SDS011;38228;50.940;4.024;2024-01-10T02:30:10;15.80;;;6.90;;
52274;SDS011;38228;50.940;4.024;2024-01-10T02:32:36;16.35;;;6.63;;
52274;SDS011;38228;50.940;4.024;2024-01-10T02:35:02;18.60;;;7.22;;
52274;SDS011;38228;50.940;4.024;2024-01-10T02:37:28;14.70;;;6.18;;
52274;SDS011;38228;50.940;4.024;2024-01-10T02:39:54;16.42;;;6.38;;
52274;SDS011;38228;50.940;4.024;2024-01-10T02:42:20;15.15;;;6.32;;
52274;SDS011;38228;50.940;4.024;2024-01-10T02:44:46;15.10;;;6.88;;
52274;SDS011;38228;50.940;4.024;2024-01-10T02:47:11;16.52;;;6.95;;
52274;SDS011;38228;50.940;4.024;2024-01-10T02:49:37;14.55;;;6.85;;
52274;SDS011;38228;50.940;4.024;2024-01-10T02:52:04;14.23;;;6.53;;
52274;SDS011;38228;50.940;4.024;2024-01-10T02:54:30;14.40;;;6.53;;
52274;SDS011;38228;50.940;4.024;2024-01-10T02:56:56;17.58;;;6.78;;
52274;SDS011;38228;50.940;4.024;2024-01-10T02:59:21;15.32;;;7.05;;
52274;SDS011;38228;50.940;4.024;2024-01-10T03:01:47;17.20;;;7.20;;
52274;SDS011;38228;50.940;4.024;2024-01-10T03:04:12;15.23;;;7.07;;
52274;SDS011;38228;50.940;4.024;2024-01-10T03:06:38;18.15;;;7.18;;
52274;SDS011;38228;50.940;4.024;2024-01-10T03:09:04;16.48;;;6.45;;
52274;SDS011;38228;50.940;4.024;2024-01-10T03:11:29;15.80;;;6.68;;
52274;SDS011;38228;50.940;4.024;2024-01-10T03:14:00;17.83;;;6.43;;
52274;SDS011;38228;50.940;4.024;2024-01-10T03:16:29;13.07;;;6.43;;
52274;SDS011;38228;50.940;4.024;2024-01-10T03:18:55;17.13;;;6.75;;
52274;SDS011;38228;50.940;4.024;2024-01-10T03:21:21;13.55;;;6.28;;
52274;SDS011;38228;50.940;4.024;2024-01-10T03:23:54;15.13;;;6.20;;
52274;SDS011;38228;50.940;4.024;2024-01-10T03:26:21;16.45;;;6.57;;
52274;SDS011;38228;50.940;4.024;2024-01-10T03:28:47;15.43;;;5.47;;
52274;SDS011;38228;50.940;4.024;2024-01-10T03:31:13;16.42;;;7.05;;
52274;SDS011;38228;50.940;4.024;2024-01-10T03:33:39;15.35;;;6.53;;
52274;SDS011;38228;50.940;4.024;2024-01-10T03:36:06;13.85;;;6.60;;
52274;SDS011;38228;50.940;4.024;2024-01-10T03:38:32;14.85;;;6.40;;
52274;SDS011;38228;50.940;4.024;2024-01-10T03:40:58;15.88;;;6.65;;
52274;SDS011;38228;50.940;4.024;2024-01-10T03:43:23;15.68;;;7.05;;
52274;SDS011;38228;50.940;4.024;2024-01-10T03:45:49;15.00;;;7.05;;
52274;SDS011;38228;50.940;4.024;2024-01-10T03:48:15;14.63;;;6.20;;
52274;SDS011;38228;50.940;4.024;2024-01-10T03:50:40;15.32;;;6.85;;
52274;SDS011;38228;50.940;4.024;2024-01-10T03:53:06;18.25;;;7.10;;
52274;SDS011;38228;50.940;4.024;2024-01-10T03:55:32;14.50;;;6.20;;
52274;SDS011;38228;50.940;4.024;2024-01-10T03:57:57;17.90;;;7.95;;
52274;SDS011;38228;50.940;4.024;2024-01-10T04:00:24;21.17;;;7.40;;
52274;SDS011;38228;50.940;4.024;2024-01-10T04:02:50;15.55;;;6.78;;
52274;SDS011;38228;50.940;4.024;2024-01-10T04:05:17;22.17;;;7.25;;
52274;SDS011;38228;50.940;4.024;2024-01-10T04:07:44;19.90;;;7.20;;
52274;SDS011;38228;50.940;4.024;2024-01-10T04:10:10;16.75;;;6.90;;
52274;SDS011;38228;50.940;4.024;2024-01-10T04:12:41;18.98;;;6.88;;
52274;SDS011;38228;50.940;4.024;2024-01-10T04:15:07;15.00;;;6.57;;
52274;SDS011;38228;50.940;4.024;2024-01-10T04:17:33;14.80;;;6.22;;
52274;SDS011;38228;50.940;4.024;2024-01-10T04:19:59;15.80;;;6.55;;
52274;SDS011;38228;50.940;4.024;2024-01-10T04:22:25;16.88;;;6.72;;
52274;SDS011;38228;50.940;4.024;2024-01-10T04:24:51;17.35;;;7.03;;
52274;SDS011;38228;50.940;4.024;2024-01-10T04:27:16;19.25;;;6.55;;
52274;SDS011;38228;50.940;4.024;2024-01-10T04:29:43;13.90;;;6.35;;
52274;SDS011;38228;50.940;4.024;2024-01-10T04:32:09;17.70;;;6.78;;
52274;SDS011;38228;50.940;4.024;2024-01-10T04:34:35;18.40;;;6.97;;
52274;SDS011;38228;50.940;4.024;2024-01-10T04:37:01;20.25;;;7.57;;
52274;SDS011;38228;50.940;4.024;2024-01-10T04:39:27;16.20;;;6.72;;
52274;SDS011;38228;50.940;4.024;2024-01-10T04:41:53;19.70;;;6.57;;
52274;SDS011;38228;50.940;4.024;2024-01-10T04:44:18;17.45;;;7.88;;
52274;SDS011;38228;50.940;4.024;2024-01-10T04:46:44;15.82;;;7.13;;
52274;SDS011;38228;50.940;4.024;2024-01-10T04:49:10;16.27;;;6.93;;
52274;SDS011;38228;50.940;4.024;2024-01-10T04:51:37;17.35;;;6.65;;
52274;SDS011;38228;50.940;4.024;2024-01-10T04:54:02;16.90;;;7.40;;
52274;SDS011;38228;50.940;4.024;2024-01-10T04:56:28;14.20;;;6.28;;
52274;SDS011;38228;50.940;4.024;2024-01-10T04:58:54;15.85;;;6.25;;
52274;SDS011;38228;50.940;4.024;2024-01-10T05:01:20;16.67;;;7.40;;
52274;SDS011;38228;50.940;4.024;2024-01-10T05:03:46;13.43;;;6.00;;
52274;SDS011;38228;50.940;4.024;2024-01-10T05:06:12;15.02;;;6.95;;
52274;SDS011;38228;50.940;4.024;2024-01-10T05:08:38;15.50;;;6.25;;
52274;SDS011;38228;50.940;4.024;2024-01-10T05:11:03;15.20;;;6.28;;
52274;SDS011;38228;50.940;4.024;2024-01-10T05:13:29;15.52;;;6.43;;
52274;SDS011;38228;50.940;4.024;2024-01-10T05:15:55;17.02;;;7.43;;
52274;SDS011;38228;50.940;4.024;2024-01-10T05:18:21;14.98;;;6.93;;
52274;SDS011;38228;50.940;4.024;2024-01-10T05:20:47;15.02;;;6.82;;
52274;SDS011;38228;50.940;4.024;2024-01-10T05:23:12;14.73;;;6.53;;
52274;SDS011;38228;50.940;4.024;2024-01-10T05:25:38;13.98;;;6.05;;
52274;SDS011;38228;50.940;4.024;2024-01-10T05:28:04;17.45;;;7.05;;
52274;SDS011;38228;50.940;4.024;2024-01-10T05:30:30;17.17;;;6.50;;
52274;SDS011;38228;50.940;4.024;2024-01-10T05:32:57;16.17;;;6.22;;
52274;SDS011;38228;50.940;4.024;2024-01-10T05:35:23;14.55;;;7.05;;
52274;SDS011;38228;50.940;4.024;2024-01-10T05:37:51;14.15;;;6.28;;
52274;SDS011;38228;50.940;4.024;2024-01-10T05:40:17;12.95;;;6.28;;
52274;SDS011;38228;50.940;4.024;2024-01-10T05:42:43;16.75;;;6.60;;
52274;SDS011;38228;50.940;4.024;2024-01-10T05:45:09;15.73;;;6.25;;
52274;SDS011;38228;50.940;4.024;2024-01-10T05:47:35;21.73;;;7.00;;
52274;SDS011;38228;50.940;4.024;2024-01-10T05:50:01;17.60;;;6.88;;
52274;SDS011;38228;50.940;4.024;2024-01-10T05:52:27;22.90;;;8.98;;
52274;SDS011;38228;50.940;4.024;2024-01-10T05:54:55;18.65;;;6.75;;
52274;SDS011;38228;50.940;4.024;2024-01-10T05:57:20;17.25;;;6.35;;
52274;SDS011;38228;50.940;4.024;2024-01-10T05:59:46;16.98;;;7.53;;
52274;SDS011;38228;50.940;4.024;2024-01-10T06:02:12;17.63;;;7.65;;
52274;SDS011;38228;50.940;4.024;2024-01-10T06:04:41;20.70;;;8.23;;
52274;SDS011;38228;50.940;4.024;2024-01-10T06:07:06;25.50;;;9.60;;
52274;SDS011;38228;50.940;4.024;2024-01-10T06:09:32;23.52;;;9.40;;
52274;SDS011;38228;50.940;4.024;2024-01-10T06:11:58;17.85;;;7.43;;
52274;SDS011;38228;50.940;4.024;2024-01-10T06:14:23;18.05;;;7.30;;
52274;SDS011;38228;50.940;4.024;2024-01-10T06:16:49;15.35;;;7.07;;
52274;SDS011;38228;50.940;4.024;2024-01-10T06:19:15;17.65;;;7.05;;
52274;SDS011;38228;50.940;4.024;2024-01-10T06:21:41;13.85;;;6.05;;
52274;SDS011;38228;50.940;4.024;2024-01-10T06:24:07;14.05;;;6.10;;
52274;SDS011;38228;50.940;4.024;2024-01-10T06:26:33;14.77;;;6.43;;
52274;SDS011;38228;50.940;4.024;2024-01-10T06:28:58;16.58;;;7.13;;
52274;SDS011;38228;50.940;4.024;2024-01-10T06:31:24;14.90;;;7.20;;
52274;SDS011;38228;50.940;4.024;2024-01-10T06:33:50;18.33;;;6.50;;
52274;SDS011;38228;50.940;4.024;2024-01-10T06:36:15;16.83;;;6.72;;
52274;SDS011;38228;50.940;4.024;2024-01-10T06:38:41;14.27;;;6.45;;
52274;SDS011;38228;50.940;4.024;2024-01-10T06:41:08;15.15;;;6.18;;
52274;SDS011;38228;50.940;4.024;2024-01-10T06:43:34;18.70;;;8.02;;
52274;SDS011;38228;50.940;4.024;2024-01-10T06:46:00;16.20;;;6.65;;
52274;SDS011;38228;50.940;4.024;2024-01-10T06:48:28;15.73;;;6.35;;
52274;SDS011;38228;50.940;4.024;2024-01-10T06:50:54;13.68;;;6.15;;
52274;SDS011;38228;50.940;4.024;2024-01-10T06:53:21;16.38;;;6.45;;
52274;SDS011;38228;50.940;4.024;2024-01-10T06:55:46;12.38;;;5.68;;
52274;SDS011;38228;50.940;4.024;2024-01-10T06:58:12;14.43;;;6.70;;
52274;SDS011;38228;50.940;4.024;2024-01-10T07:00:38;14.00;;;5.65;;
52274;SDS011;38228;50.940;4.024;2024-01-10T07:03:04;14.38;;;6.35;;
52274;SDS011;38228;50.940;4.024;2024-01-10T07:05:30;20.17;;;7.13;;
52274;SDS011;38228;50.940;4.024;2024-01-10T07:07:59;16.10;;;7.05;;
52274;SDS011;38228;50.940;4.024;2024-01-10T07:10:28;18.55;;;7.85;;
52274;SDS011;38228;50.940;4.024;2024-01-10T07:12:54;17.92;;;7.00;;
52274;SDS011;38228;50.940;4.024;2024-01-10T07:15:20;12.80;;;6.00;;
52274;SDS011;38228;50.940;4.024;2024-01-10T07:17:47;16.10;;;6.97;;
52274;SDS011;38228;50.940;4.024;2024-01-10T07:20:13;14.82;;;6.10;;
52274;SDS011;38228;50.940;4.024;2024-01-10T07:22:39;15.02;;;6.45;;
52274;SDS011;38228;50.940;4.024;2024-01-10T07:25:07;19.05;;;6.68;;
52274;SDS011;38228;50.940;4.024;2024-01-10T07:27:39;17.23;;;7.25;;
52274;SDS011;38228;50.940;4.024;2024-01-10T07:30:06;16.90;;;7.20;;
52274;SDS011;38228;50.940;4.024;2024-01-10T07:32:41;15.75;;;6.95;;
52274;SDS011;38228;50.940;4.024;2024-01-10T07:35:08;17.02;;;7.13;;
52274;SDS011;38228;50.940;4.024;2024-01-10T07:37:36;18.73;;;6.63;;
52274;SDS011;38228;50.940;4.024;2024-01-10T07:40:06;17.40;;;6.57;;
52274;SDS011;38228;50.940;4.024;2024-01-10T07:42:33;16.42;;;7.28;;
52274;SDS011;38228;50.940;4.024;2024-01-10T07:45:00;17.15;;;6.88;;
52274;SDS011;38228;50.940;4.024;2024-01-10T07:47:33;16.30;;;7.43;;
52274;SDS011;38228;50.940;4.024;2024-01-10T07:50:04;17.83;;;7.85;;
52274;SDS011;38228;50.940;4.024;2024-01-10T07:52:33;16.23;;;7.43;;
52274;SDS011;38228;50.940;4.024;2024-01-10T07:54:59;15.35;;;6.68;;
52274;SDS011;38228;50.940;4.024;2024-01-10T07:57:26;18.30;;;7.40;;
52274;SDS011;38228;50.940;4.024;2024-01-10T07:59:52;16.98;;;6.95;;
52274;SDS011;38228;50.940;4.024;2024-01-10T08:02:19;19.27;;;6.90;;
52274;SDS011;38228;50.940;4.024;2024-01-10T08:04:44;17.90;;;7.57;;
52274;SDS011;38228;50.940;4.024;2024-01-10T08:07:10;19.75;;;8.13;;
52274;SDS011;38228;50.940;4.024;2024-01-10T08:09:36;21.80;;;7.30;;
52274;SDS011;38228;50.940;4.024;2024-01-10T08:12:05;17.92;;;7.70;;
52274;SDS011;38228;50.940;4.024;2024-01-10T08:14:32;19.20;;;7.18;;
52274;SDS011;38228;50.940;4.024;2024-01-10T08:16:57;24.63;;;7.97;;
52274;SDS011;38228;50.940;4.024;2024-01-10T08:19:24;16.23;;;7.28;;
52274;SDS011;38228;50.940;4.024;2024-01-10T08:21:51;16.50;;;7.15;;
52274;SDS011;38228;50.940;4.024;2024-01-10T08:24:20;15.23;;;7.10;;
52274;SDS011;38228;50.940;4.024;2024-01-10T08:26:46;16.20;;;6.95;;
52274;SDS011;38228;50.940;4.024;2024-01-10T08:29:16;20.58;;;7.45;;
52274;SDS011;38228;50.940;4.024;2024-01-10T08:31:46;16.30;;;7.15;;
52274;SDS011;38228;50.940;4.024;2024-01-10T08:34:12;16.33;;;6.90;;
52274;SDS011;38228;50.940;4.024;2024-01-10T08:36:38;16.45;;;7.60;;
52274;SDS011;38228;50.940;4.024;2024-01-10T08:39:04;21.70;;;7.68;;
52274;SDS011;38228;50.940;4.024;2024-01-10T08:41:30;22.70;;;8.70;;
52274;SDS011;38228;50.940;4.024;2024-01-10T08:43:56;16.92;;;6.65;;
52274;SDS011;38228;50.940;4.024;2024-01-10T08:46:22;16.17;;;7.05;;
52274;SDS011;38228;50.940;4.024;2024-01-10T08:48:49;19.90;;;8.02;;
52274;SDS011;38228;50.940;4.024;2024-01-10T08:51:15;20.52;;;7.13;;
52274;SDS011;38228;50.940;4.024;2024-01-10T08:53:42;17.25;;;7.00;;
52274;SDS011;38228;50.940;4.024;2024-01-10T08:56:10;24.35;;;9.02;;
52274;SDS011;38228;50.940;4.024;2024-01-10T08:58:37;19.17;;;8.25;;
52274;SDS011;38228;50.940;4.024;2024-01-10T09:01:03;20.85;;;8.80;;
52274;SDS011;38228;50.940;4.024;2024-01-10T09:03:33;17.25;;;7.63;;
52274;SDS011;38228;50.940;4.024;2024-01-10T09:05:59;18.42;;;7.55;;
52274;SDS011;38228;50.940;4.024;2024-01-10T09:08:25;21.73;;;7.10;;
52274;SDS011;38228;50.940;4.024;2024-01-10T09:10:50;19.70;;;7.47;;
52274;SDS011;38228;50.940;4.024;2024-01-10T09:13:16;23.08;;;7.78;;
52274;SDS011;38228;50.940;4.024;2024-01-10T09:15:42;15.90;;;7.47;;
52274;SDS011;38228;50.940;4.024;2024-01-10T09:18:08;17.60;;;6.85;;
52274;SDS011;38228;50.940;4.024;2024-01-10T09:20:34;20.10;;;7.70;;
52274;SDS011;38228;50.940;4.024;2024-01-10T09:23:01;15.30;;;6.85;;
52274;SDS011;38228;50.940;4.024;2024-01-10T09:25:27;16.63;;;7.22;;
52274;SDS011;38228;50.940;4.024;2024-01-10T09:27:53;18.02;;;7.82;;
52274;SDS011;38228;50.940;4.024;2024-01-10T09:30:19;15.95;;;6.72;;
52274;SDS011;38228;50.940;4.024;2024-01-10T09:32:45;18.58;;;7.13;;
52274;SDS011;38228;50.940;4.024;2024-01-10T09:35:11;19.10;;;6.88;;
52274;SDS011;38228;50.940;4.024;2024-01-10T09:37:38;16.67;;;7.38;;
52274;SDS011;38228;50.940;4.024;2024-01-10T09:40:04;17.52;;;6.47;;
52274;SDS011;38228;50.940;4.024;2024-01-10T09:42:34;14.32;;;6.70;;
52274;SDS011;38228;50.940;4.024;2024-01-10T09:45:01;17.33;;;7.53;;
52274;SDS011;38228;50.940;4.024;2024-01-10T09:47:30;17.60;;;7.53;;
52274;SDS011;38228;50.940;4.024;2024-01-10T09:49:57;14.90;;;6.65;;
52274;SDS011;38228;50.940;4.024;2024-01-10T09:52:27;17.45;;;7.80;;
52274;SDS011;38228;50.940;4.024;2024-01-10T09:54:53;17.83;;;7.20;;
52274;SDS011;38228;50.940;4.024;2024-01-10T09:57:21;18.88;;;7.40;;
52274;SDS011;38228;50.940;4.024;2024-01-10T09:59:50;17.05;;;7.45;;
52274;SDS011;38228;50.940;4.024;2024-01-10T10:02:17;17.15;;;7.47;;
52274;SDS011;38228;50.940;4.024;2024-01-10T10:04:51;16.75;;;7.32;;
52274;SDS011;38228;50.940;4.024;2024-01-10T10:07:26;16.90;;;7.38;;
52274;SDS011;38228;50.940;4.024;2024-01-10T10:09:52;15.73;;;7.45;;
52274;SDS011;38228;50.940;4.024;2024-01-10T10:12:18;18.40;;;7.15;;
52274;SDS011;38228;50.940;4.024;2024-01-10T10:14:44;18.88;;;7.32;;
52274;SDS011;38228;50.940;4.024;2024-01-10T10:17:13;17.60;;;7.15;;
52274;SDS011;38228;50.940;4.024;2024-01-10T10:19:40;16.85;;;7.63;;
52274;SDS011;38228;50.940;4.024;2024-01-10T10:22:09;22.85;;;7.80;;
52274;SDS011;38228;50.940;4.024;2024-01-10T10:24:35;18.13;;;7.55;;
52274;SDS011;38228;50.940;4.024;2024-01-10T10:27:05;18.90;;;7.63;;
52274;SDS011;38228;50.940;4.024;2024-01-10T10:29:35;16.55;;;7.53;;
52274;SDS011;38228;50.940;4.024;2024-01-10T10:32:02;17.13;;;7.25;;
52274;SDS011;38228;50.940;4.024;2024-01-10T10:34:30;19.30;;;8.15;;
52274;SDS011;38228;50.940;4.024;2024-01-10T10:36:57;18.50;;;7.63;;
52274;SDS011;38228;50.940;4.024;2024-01-10T10:39:24;19.90;;;7.38;;
52274;SDS011;38228;50.940;4.024;2024-01-10T10:41:50;17.67;;;7.88;;
52274;SDS011;38228;50.940;4.024;2024-01-10T10:44:19;20.30;;;8.10;;
52274;SDS011;38228;50.940;4.024;2024-01-10T10:46:58;17.70;;;7.93;;
52274;SDS011;38228;50.940;4.024;2024-01-10T10:49:29;17.13;;;8.07;;
52274;SDS011;38228;50.940;4.024;2024-01-10T10:51:59;18.52;;;7.72;;
52274;SDS011;38228;50.940;4.024;2024-01-10T10:54:27;17.90;;;7.75;;
52274;SDS011;38228;50.940;4.024;2024-01-10T10:56:57;17.33;;;7.88;;
52274;SDS011;38228;50.940;4.024;2024-01-10T10:59:27;19.17;;;7.70;;
52274;SDS011;38228;50.940;4.024;2024-01-10T11:01:54;18.80;;;7.82;;
52274;SDS011;38228;50.940;4.024;2024-01-10T11:04:21;19.83;;;8.02;;
52274;SDS011;38228;50.940;4.024;2024-01-10T11:06:47;17.48;;;7.82;;
52274;SDS011;38228;50.940;4.024;2024-01-10T11:09:13;20.23;;;8.52;;
52274;SDS011;38228;50.940;4.024;2024-01-10T11:20:20;20.10;;;8.15;;
52274;SDS011;38228;50.940;4.024;2024-01-10T11:23:06;21.83;;;8.70;;
52274;SDS011;38228;50.940;4.024;2024-01-10T11:25:41;21.42;;;8.73;;
52274;SDS011;38228;50.940;4.024;2024-01-10T11:28:07;17.63;;;7.60;;
52274;SDS011;38228;50.940;4.024;2024-01-10T11:30:33;19.92;;;8.00;;
52274;SDS011;38228;50.940;4.024;2024-01-10T11:33:01;18.02;;;8.38;;
52274;SDS011;38228;50.940;4.024;2024-01-10T11:35:27;17.45;;;8.27;;
52274;SDS011;38228;50.940;4.024;2024-01-10T11:37:59;19.92;;;8.52;;
52274;SDS011;38228;50.940;4.024;2024-01-10T11:43:13;20.38;;;9.05;;
52274;SDS011;38228;50.940;4.024;2024-01-10T11:45:49;19.80;;;8.20;;
52274;SDS011;38228;50.940;4.024;2024-01-10T11:48:38;19.60;;;8.77;;
52274;SDS011;38228;50.940;4.024;2024-01-10T11:51:10;16.50;;;8.60;;
52274;SDS011;38228;50.940;4.024;2024-01-10T11:53:39;18.52;;;8.43;;
52274;SDS011;38228;50.940;4.024;2024-01-10T11:56:14;20.25;;;8.65;;
52274;SDS011;38228;50.940;4.024;2024-01-10T11:59:02;18.45;;;8.32;;
52274;SDS011;38228;50.940;4.024;2024-01-10T12:01:39;24.10;;;8.77;;
52274;SDS011;38228;50.940;4.024;2024-01-10T12:04:08;19.88;;;8.93;;
52274;SDS011;38228;50.940;4.024;2024-01-10T12:06:39;21.40;;;8.52;;
52274;SDS011;38228;50.940;4.024;2024-01-10T12:09:08;18.85;;;8.05;;
52274;SDS011;38228;50.940;4.024;2024-01-10T12:11:45;20.80;;;8.55;;
52274;SDS011;38228;50.940;4.024;2024-01-10T12:14:13;21.58;;;9.35;;
52274;SDS011;38228;50.940;4.024;2024-01-10T12:16:40;18.20;;;8.38;;
52274;SDS011;38228;50.940;4.024;2024-01-10T12:19:08;18.50;;;8.68;;
52274;SDS011;38228;50.940;4.024;2024-01-10T12:21:37;18.98;;;8.85;;
52274;SDS011;38228;50.940;4.024;2024-01-10T12:24:07;21.33;;;9.60;;
52274;SDS011;38228;50.940;4.024;2024-01-10T12:26:35;21.58;;;9.80;;
52274;SDS011;38228;50.940;4.024;2024-01-10T12:29:04;20.67;;;8.93;;
52274;SDS011;38228;50.940;4.024;2024-01-10T12:31:33;22.30;;;9.20;;
52274;SDS011;38228;50.940;4.024;2024-01-10T12:34:02;20.73;;;9.15;;
52274;SDS011;38228;50.940;4.024;2024-01-10T12:36:30;25.70;;;9.25;;
52274;SDS011;38228;50.940;4.024;2024-01-10T12:38:59;20.60;;;9.38;;
52274;SDS011;38228;50.940;4.024;2024-01-10T12:44:03;19.27;;;9.38;;
52274;SDS011;38228;50.940;4.024;2024-01-10T12:46:32;21.25;;;9.02;;
52274;SDS011;38228;50.940;4.024;2024-01-10T12:48:59;23.10;;;9.45;;
52274;SDS011;38228;50.940;4.024;2024-01-10T12:51:29;21.23;;;8.95;;
52274;SDS011;38228;50.940;4.024;2024-01-10T12:53:59;22.17;;;9.30;;
52274;SDS011;38228;50.940;4.024;2024-01-10T12:56:25;23.58;;;9.43;;
52274;SDS011;38228;50.940;4.024;2024-01-10T12:58:54;20.25;;;9.43;;
52274;SDS011;38228;50.940;4.024;2024-01-10T13:01:25;21.48;;;9.73;;
52274;SDS011;38228;50.940;4.024;2024-01-10T13:03:52;20.52;;;9.15;;
52274;SDS011;38228;50.940;4.024;2024-01-10T13:06:23;25.13;;;9.88;;
52274;SDS011;38228;50.940;4.024;2024-01-10T13:08:52;22.80;;;10.23;;
52274;SDS011;38228;50.940;4.024;2024-01-10T13:11:23;24.23;;;10.00;;
52274;SDS011;38228;50.940;4.024;2024-01-10T13:13:51;27.70;;;10.52;;
52274;SDS011;38228;50.940;4.024;2024-01-10T13:16:17;23.88;;;9.90;;
52274;SDS011;38228;50.940;4.024;2024-01-10T13:18:47;23.88;;;10.13;;
52274;SDS011;38228;50.940;4.024;2024-01-10T13:21:18;23.65;;;10.40;;
52274;SDS011;38228;50.940;4.024;2024-01-10T13:23:47;22.00;;;9.73;;
52274;SDS011;38228;50.940;4.024;2024-01-10T13:26:16;22.08;;;9.05;;
52274;SDS011;38228;50.940;4.024;2024-01-10T13:28:44;22.45;;;9.52;;
52274;SDS011;38228;50.940;4.024;2024-01-10T13:31:20;21.48;;;10.10;;
52274;SDS011;38228;50.940;4.024;2024-01-10T13:33:48;23.58;;;9.30;;
52274;SDS011;38228;50.940;4.024;2024-01-10T13:36:17;27.65;;;9.80;;
52274;SDS011;38228;50.940;4.024;2024-01-10T13:38:46;26.23;;;9.98;;
52274;SDS011;38228;50.940;4.024;2024-01-10T13:41:14;26.45;;;10.10;;
52274;SDS011;38228;50.940;4.024;2024-01-10T13:43:40;26.38;;;10.63;;
52274;SDS011;38228;50.940;4.024;2024-01-10T13:46:06;22.15;;;9.65;;
52274;SDS011;38228;50.940;4.024;2024-01-10T13:48:31;22.73;;;9.80;;
52274;SDS011;38228;50.940;4.024;2024-01-10T13:50:57;26.35;;;10.23;;
52274;SDS011;38228;50.940;4.024;2024-01-10T13:53:23;21.13;;;9.82;;
52274;SDS011;38228;50.940;4.024;2024-01-10T13:55:50;20.75;;;9.45;;
52274;SDS011;38228;50.940;4.024;2024-01-10T13:58:20;21.83;;;9.75;;
52274;SDS011;38228;50.940;4.024;2024-01-10T14:00:48;25.73;;;10.52;;
52274;SDS011;38228;50.940;4.024;2024-01-10T14:03:18;20.88;;;9.73;;
52274;SDS011;38228;50.940;4.024;2024-01-10T14:05:49;25.38;;;11.20;;
52274;SDS011;38228;50.940;4.024;2024-01-10T14:08:15;24.63;;;10.52;;
52274;SDS011;38228;50.940;4.024;2024-01-10T14:10:43;22.58;;;10.65;;
52274;SDS011;38228;50.940;4.024;2024-01-10T14:13:09;22.90;;;10.07;;
52274;SDS011;38228;50.940;4.024;2024-01-10T14:15:35;19.13;;;10.02;;
52274;SDS011;38228;50.940;4.024;2024-01-10T14:18:00;25.08;;;10.77;;
52274;SDS011;38228;50.940;4.024;2024-01-10T14:20:26;24.10;;;10.05;;
52274;SDS011;38228;50.940;4.024;2024-01-10T14:22:52;26.90;;;11.40;;
52274;SDS011;38228;50.940;4.024;2024-01-10T14:25:21;25.13;;;10.38;;
52274;SDS011;38228;50.940;4.024;2024-01-10T14:27:46;24.65;;;9.82;;
52274;SDS011;38228;50.940;4.024;2024-01-10T14:30:12;23.48;;;10.57;;
52274;SDS011;38228;50.940;4.024;2024-01-10T14:32:40;22.63;;;10.75;;
52274;SDS011;38228;50.940;4.024;2024-01-10T14:35:06;24.33;;;10.82;;
52274;SDS011;38228;50.940;4.024;2024-01-10T14:37:33;24.95;;;10.55;;
52274;SDS011;38228;50.940;4.024;2024-01-10T14:40:01;25.02;;;11.00;;
52274;SDS011;38228;50.940;4.024;2024-01-10T14:42:28;20.73;;;9.95;;
52274;SDS011;38228;50.940;4.024;2024-01-10T14:44:53;23.23;;;10.68;;
52274;SDS011;38228;50.940;4.024;2024-01-10T14:47:19;22.10;;;10.52;;